sensor_id;sensor_type;location;lat;lon;timestamp;pressure;altitude;pressure_sealevel;temperature;humidity
57126;BME280;43000;50.770;6.110;2022-09-09T00:01:37;98851.25;;;15.20;86.11
57126;BME280;43000;50.770;6.110;2022-09-09T00:04:15;98847.03;;;15.17;85.95
57126;BME280;43000;50.770;6.110;2022-09-09T00:06:56;98837.88;;;15.10;86.68
57126;BME280;43000;50.770;6.110;2022-09-09T00:09:27;98842.00;;;15.03;85.90
57126;BME280;43000;50.770;6.110;2022-09-09T00:12:00;98834.06;;;15.03;86.32
57126;BME280;43000;50.770;6.110;2022-09-09T00:14:35;98842.16;;;15.01;86.23
57126;BME280;43000;50.770;6.110;2022-09-09T00:17:08;98839.88;;;14.97;85.81
57126;BME280;43000;50.770;6.110;2022-09-09T00:19:40;98847.13;;;14.95;86.66
57126;BME280;43000;50.770;6.110;2022-09-09T00:22:16;98841.09;;;14.93;86.43
57126;BME280;43000;50.770;6.110;2022-09-09T00:24:44;98848.22;;;14.92;86.44
57126;BME280;43000;50.770;6.110;2022-09-09T00:27:19;98844.97;;;14.89;86.53
57126;BME280;43000;50.770;6.110;2022-09-09T00:29:53;98846.91;;;14.87;87.04
57126;BME280;43000;50.770;6.110;2022-09-09T00:32:21;98838.97;;;14.87;87.48
57126;BME280;43000;50.770;6.110;2022-09-09T00:34:51;98837.25;;;14.86;87.85
57126;BME280;43000;50.770;6.110;2022-09-09T00:37:21;98832.78;;;14.86;87.64
57126;BME280;43000;50.770;6.110;2022-09-09T00:39:51;98836.53;;;14.84;88.02
57126;BME280;43000;50.770;6.110;2022-09-09T00:42:24;98835.59;;;14.85;88.56
57126;BME280;43000;50.770;6.110;2022-09-09T00:44:55;98830.84;;;14.88;88.60
57126;BME280;43000;50.770;6.110;2022-09-09T00:47:39;98833.41;;;14.90;89.78
57126;BME280;43000;50.770;6.110;2022-09-09T00:50:17;98826.53;;;14.87;89.90
57126;BME280;43000;50.770;6.110;2022-09-09T00:52:59;98834.50;;;14.87;89.10
57126;BME280;43000;50.770;6.110;2022-09-09T00:55:36;98830.00;;;14.88;88.96
57126;BME280;43000;50.770;6.110;2022-09-09T00:58:06;98830.00;;;14.88;89.73
57126;BME280;43000;50.770;6.110;2022-09-09T01:00:41;98839.66;;;14.89;89.34
57126;BME280;43000;50.770;6.110;2022-09-09T01:03:18;98844.84;;;14.90;89.45
57126;BME280;43000;50.770;6.110;2022-09-09T01:05:55;98841.94;;;14.93;89.77
57126;BME280;43000;50.770;6.110;2022-09-09T01:08:42;98842.91;;;14.92;89.12
57126;BME280;43000;50.770;6.110;2022-09-09T01:11:20;98840.38;;;14.91;89.62
57126;BME280;43000;50.770;6.110;2022-09-09T01:13:52;98843.03;;;14.91;89.40
57126;BME280;43000;50.770;6.110;2022-09-09T01:16:20;98844.59;;;14.93;89.58
57126;BME280;43000;50.770;6.110;2022-09-09T01:18:51;98836.50;;;14.95;89.58
57126;BME280;43000;50.770;6.110;2022-09-09T01:21:22;98840.84;;;14.96;89.93
57126;BME280;43000;50.770;6.110;2022-09-09T01:24:08;98839.88;;;14.97;90.15
57126;BME280;43000;50.770;6.110;2022-09-09T01:26:43;98837.94;;;14.99;90.09
57126;BME280;43000;50.770;6.110;2022-09-09T01:29:12;98836.13;;;14.99;90.03
57126;BME280;43000;50.770;6.110;2022-09-09T01:31:42;98835.16;;;15.00;90.43
57126;BME280;43000;50.770;6.110;2022-09-09T01:34:10;98838.41;;;15.04;90.38
57126;BME280;43000;50.770;6.110;2022-09-09T01:36:39;98833.78;;;15.06;90.15
57126;BME280;43000;50.770;6.110;2022-09-09T01:39:09;98834.41;;;15.10;90.42
57126;BME280;43000;50.770;6.110;2022-09-09T01:41:35;98833.03;;;15.15;90.37
57126;BME280;43000;50.770;6.110;2022-09-09T01:44:04;98821.03;;;15.21;90.58
57126;BME280;43000;50.770;6.110;2022-09-09T01:46:31;98828.91;;;15.22;90.50
57126;BME280;43000;50.770;6.110;2022-09-09T01:48:59;98829.34;;;15.28;90.42
57126;BME280;43000;50.770;6.110;2022-09-09T01:51:27;98824.50;;;15.33;89.91
57126;BME280;43000;50.770;6.110;2022-09-09T01:53:54;98828.59;;;15.37;89.95
57126;BME280;43000;50.770;6.110;2022-09-09T01:56:35;98824.56;;;15.42;89.70
57126;BME280;43000;50.770;6.110;2022-09-09T01:59:18;98823.44;;;15.45;89.69
57126;BME280;43000;50.770;6.110;2022-09-09T02:01:57;98824.78;;;15.51;89.91
57126;BME280;43000;50.770;6.110;2022-09-09T02:04:36;98825.22;;;15.56;89.50
57126;BME280;43000;50.770;6.110;2022-09-09T02:07:28;98823.97;;;15.60;88.99
57126;BME280;43000;50.770;6.110;2022-09-09T02:10:02;98829.28;;;15.60;88.79
57126;BME280;43000;50.770;6.110;2022-09-09T02:12:31;98819.63;;;15.59;88.46
57126;BME280;43000;50.770;6.110;2022-09-09T02:15:03;98823.72;;;15.63;88.73
57126;BME280;43000;50.770;6.110;2022-09-09T02:17:34;98816.31;;;15.66;88.73
57126;BME280;43000;50.770;6.110;2022-09-09T02:20:05;98816.78;;;15.72;88.41
57126;BME280;43000;50.770;6.110;2022-09-09T02:22:33;98813.41;;;15.70;87.83
57126;BME280;43000;50.770;6.110;2022-09-09T02:25:03;98809.81;;;15.71;88.20
57126;BME280;43000;50.770;6.110;2022-09-09T02:27:31;98810.66;;;15.71;87.96
57126;BME280;43000;50.770;6.110;2022-09-09T02:30:00;98810.75;;;15.70;87.62
57126;BME280;43000;50.770;6.110;2022-09-09T02:32:28;98808.81;;;15.72;87.81
57126;BME280;43000;50.770;6.110;2022-09-09T02:34:58;98810.38;;;15.74;87.65
57126;BME280;43000;50.770;6.110;2022-09-09T02:37:29;98808.69;;;15.73;87.79
57126;BME280;43000;50.770;6.110;2022-09-09T02:39:58;98804.22;;;15.74;87.59
57126;BME280;43000;50.770;6.110;2022-09-09T02:42:25;98805.78;;;15.76;87.79
57126;BME280;43000;50.770;6.110;2022-09-09T02:44:51;98809.16;;;15.78;87.70
57126;BME280;43000;50.770;6.110;2022-09-09T02:47:26;98799.22;;;15.80;87.51
57126;BME280;43000;50.770;6.110;2022-09-09T02:49:56;98801.03;;;15.80;87.72
57126;BME280;43000;50.770;6.110;2022-09-09T02:52:33;98802.72;;;15.81;87.28
57126;BME280;43000;50.770;6.110;2022-09-09T02:55:07;98801.88;;;15.80;86.91
57126;BME280;43000;50.770;6.110;2022-09-09T02:57:37;98806.34;;;15.80;87.18
57126;BME280;43000;50.770;6.110;2022-09-09T03:00:06;98806.47;;;15.78;87.13
57126;BME280;43000;50.770;6.110;2022-09-09T03:02:34;98809.16;;;15.78;86.99
57126;BME280;43000;50.770;6.110;2022-09-09T03:05:01;98808.16;;;15.79;86.88
57126;BME280;43000;50.770;6.110;2022-09-09T03:07:27;98808.03;;;15.81;86.84
57126;BME280;43000;50.770;6.110;2022-09-09T03:09:54;98812.25;;;15.83;86.49
57126;BME280;43000;50.770;6.110;2022-09-09T03:12:20;98809.84;;;15.80;86.41
57126;BME280;43000;50.770;6.110;2022-09-09T03:14:47;98808.31;;;15.78;86.13
57126;BME280;43000;50.770;6.110;2022-09-09T03:17:13;98810.38;;;15.74;85.83
57126;BME280;43000;50.770;6.110;2022-09-09T03:19:41;98811.22;;;15.75;86.13
57126;BME280;43000;50.770;6.110;2022-09-09T03:22:09;98809.41;;;15.75;85.92
57126;BME280;43000;50.770;6.110;2022-09-09T03:24:36;98807.44;;;15.77;86.07
57126;BME280;43000;50.770;6.110;2022-09-09T03:27:02;98804.66;;;15.79;85.97
57126;BME280;43000;50.770;6.110;2022-09-09T03:29:29;98806.75;;;15.75;85.79
57126;BME280;43000;50.770;6.110;2022-09-09T03:31:56;98802.41;;;15.74;86.02
57126;BME280;43000;50.770;6.110;2022-09-09T03:34:22;98817.25;;;15.77;86.06
57126;BME280;43000;50.770;6.110;2022-09-09T03:36:50;98800.47;;;15.76;86.00
57126;BME280;43000;50.770;6.110;2022-09-09T03:39:17;98798.78;;;15.75;85.57
57126;BME280;43000;50.770;6.110;2022-09-09T03:41:43;98804.22;;;15.74;85.73
57126;BME280;43000;50.770;6.110;2022-09-09T03:44:12;98807.88;;;15.73;85.21
57126;BME280;43000;50.770;6.110;2022-09-09T03:46:39;98804.22;;;15.74;85.54
57126;BME280;43000;50.770;6.110;2022-09-09T03:49:05;98801.56;;;15.74;84.96
57126;BME280;43000;50.770;6.110;2022-09-09T03:51:32;98810.38;;;15.74;84.63
57126;BME280;43000;50.770;6.110;2022-09-09T03:54:03;98811.22;;;15.75;84.91
57126;BME280;43000;50.770;6.110;2022-09-09T03:56:30;98807.31;;;15.79;84.83
57126;BME280;43000;50.770;6.110;2022-09-09T03:58:57;98805.38;;;15.81;84.72
57126;BME280;43000;50.770;6.110;2022-09-09T04:01:23;98800.91;;;15.81;84.51
57126;BME280;43000;50.770;6.110;2022-09-09T04:03:50;98797.97;;;15.84;84.13
57126;BME280;43000;50.770;6.110;2022-09-09T04:06:18;98792.41;;;15.87;84.39
57126;BME280;43000;50.770;6.110;2022-09-09T04:08:46;98798.81;;;15.85;84.07
57126;BME280;43000;50.770;6.110;2022-09-09T04:11:15;98802.31;;;15.85;84.37
57126;BME280;43000;50.770;6.110;2022-09-09T04:13:42;98799.66;;;15.85;84.10
57126;BME280;43000;50.770;6.110;2022-09-09T04:16:10;98794.34;;;15.85;83.85
57126;BME280;43000;50.770;6.110;2022-09-09T04:18:38;98791.53;;;15.87;83.76
57126;BME280;43000;50.770;6.110;2022-09-09T04:21:05;98788.63;;;15.90;84.10
57126;BME280;43000;50.770;6.110;2022-09-09T04:23:35;98790.19;;;15.93;83.85
57126;BME280;43000;50.770;6.110;2022-09-09T04:26:02;98787.94;;;15.88;83.75
57126;BME280;43000;50.770;6.110;2022-09-09T04:31:04;98787.09;;;15.87;84.07
57126;BME280;43000;50.770;6.110;2022-09-09T04:33:31;98793.25;;;15.88;84.33
57126;BME280;43000;50.770;6.110;2022-09-09T04:35:58;98786.94;;;15.89;83.66
57126;BME280;43000;50.770;6.110;2022-09-09T04:38:24;98800.22;;;15.89;83.58
57126;BME280;43000;50.770;6.110;2022-09-09T04:40:53;98802.75;;;15.91;83.41
57126;BME280;43000;50.770;6.110;2022-09-09T04:43:20;98805.53;;;15.89;83.40
57126;BME280;43000;50.770;6.110;2022-09-09T04:45:50;98804.84;;;15.87;83.26
57126;BME280;43000;50.770;6.110;2022-09-09T04:48:17;98804.97;;;15.85;82.72
57126;BME280;43000;50.770;6.110;2022-09-09T04:50:44;98802.88;;;15.89;82.94
57126;BME280;43000;50.770;6.110;2022-09-09T04:53:19;98800.22;;;15.89;83.24
57126;BME280;43000;50.770;6.110;2022-09-09T04:55:47;98800.22;;;15.89;82.54
57126;BME280;43000;50.770;6.110;2022-09-09T04:58:14;98803.59;;;15.91;82.19
57126;BME280;43000;50.770;6.110;2022-09-09T05:00:42;98811.13;;;15.86;81.82
57126;BME280;43000;50.770;6.110;2022-09-09T05:03:10;98810.41;;;15.84;82.20
57126;BME280;43000;50.770;6.110;2022-09-09T05:05:37;98807.06;;;15.82;82.48
57126;BME280;43000;50.770;6.110;2022-09-09T05:08:05;98807.19;;;15.80;82.21
57126;BME280;43000;50.770;6.110;2022-09-09T05:10:32;98808.31;;;15.78;81.80
57126;BME280;43000;50.770;6.110;2022-09-09T05:13:00;98811.09;;;15.76;82.06
57126;BME280;43000;50.770;6.110;2022-09-09T05:15:26;98809.41;;;15.75;82.04
57126;BME280;43000;50.770;6.110;2022-09-09T05:17:56;98808.69;;;15.73;82.30
57126;BME280;43000;50.770;6.110;2022-09-09T05:20:26;98811.47;;;15.72;82.22
57126;BME280;43000;50.770;6.110;2022-09-09T05:22:52;98806.88;;;15.74;81.93
57126;BME280;43000;50.770;6.110;2022-09-09T05:25:19;98807.88;;;15.73;81.26
57126;BME280;43000;50.770;6.110;2022-09-09T05:27:47;98811.47;;;15.72;81.29
57126;BME280;43000;50.770;6.110;2022-09-09T05:30:14;98806.88;;;15.74;81.53
57126;BME280;43000;50.770;6.110;2022-09-09T05:32:42;98804.22;;;15.74;81.45
57126;BME280;43000;50.770;6.110;2022-09-09T05:35:08;98805.22;;;15.73;81.39
57126;BME280;43000;50.770;6.110;2022-09-09T05:37:39;98805.66;;;15.78;81.11
57126;BME280;43000;50.770;6.110;2022-09-09T05:40:06;98801.03;;;15.80;81.05
57126;BME280;43000;50.770;6.110;2022-09-09T05:42:37;98804.53;;;15.80;80.56
57126;BME280;43000;50.770;6.110;2022-09-09T05:45:06;98811.41;;;15.83;80.68
57126;BME280;43000;50.770;6.110;2022-09-09T05:47:34;98814.75;;;15.85;80.44
57126;BME280;43000;50.770;6.110;2022-09-09T05:50:05;98808.47;;;15.86;80.00
57126;BME280;43000;50.770;6.110;2022-09-09T05:52:32;98813.78;;;15.86;79.85
57126;BME280;43000;50.770;6.110;2022-09-09T05:55:00;98810.75;;;15.91;79.60
57126;BME280;43000;50.770;6.110;2022-09-09T05:57:26;98808.19;;;15.89;79.29
57126;BME280;43000;50.770;6.110;2022-09-09T05:59:53;98804.59;;;15.90;79.21
57126;BME280;43000;50.770;6.110;2022-09-09T06:02:20;98802.50;;;15.94;78.88
57126;BME280;43000;50.770;6.110;2022-09-09T06:04:48;98794.63;;;15.92;79.04
57126;BME280;43000;50.770;6.110;2022-09-09T06:07:15;98803.59;;;15.91;78.97
57126;BME280;43000;50.770;6.110;2022-09-09T06:09:44;98797.44;;;15.91;78.58
57126;BME280;43000;50.770;6.110;2022-09-09T06:12:12;98799.00;;;15.93;78.53
57126;BME280;43000;50.770;6.110;2022-09-09T06:14:39;98799.94;;;15.92;79.05
57126;BME280;43000;50.770;6.110;2022-09-09T06:17:06;98805.41;;;15.91;78.51
57126;BME280;43000;50.770;6.110;2022-09-09T06:19:32;98811.00;;;15.87;78.79
57126;BME280;43000;50.770;6.110;2022-09-09T06:21:59;98806.38;;;15.89;78.46
57126;BME280;43000;50.770;6.110;2022-09-09T06:24:27;98809.91;;;15.90;78.01
57126;BME280;43000;50.770;6.110;2022-09-09T06:26:55;98806.38;;;15.89;77.77
57126;BME280;43000;50.770;6.110;2022-09-09T06:29:24;98809.63;;;15.93;78.01
57126;BME280;43000;50.770;6.110;2022-09-09T06:31:51;98807.09;;;15.92;77.18
57126;BME280;43000;50.770;6.110;2022-09-09T06:34:19;98805.84;;;15.96;77.17
57126;BME280;43000;50.770;6.110;2022-09-09T06:36:47;98799.88;;;16.03;76.85
57126;BME280;43000;50.770;6.110;2022-09-09T06:39:18;98793.59;;;16.14;76.25
57126;BME280;43000;50.770;6.110;2022-09-09T06:41:47;98792.91;;;16.22;76.32
57126;BME280;43000;50.770;6.110;2022-09-09T06:44:15;98791.69;;;16.26;75.68
57126;BME280;43000;50.770;6.110;2022-09-09T06:46:53;98792.69;;;16.35;75.16
57126;BME280;43000;50.770;6.110;2022-09-09T06:49:22;98797.16;;;16.44;74.87
57126;BME280;43000;50.770;6.110;2022-09-09T06:51:50;98797.47;;;16.50;74.39
57126;BME280;43000;50.770;6.110;2022-09-09T06:54:17;98798.19;;;16.52;74.09
57126;BME280;43000;50.770;6.110;2022-09-09T06:56:45;98793.72;;;16.63;74.16
57126;BME280;43000;50.770;6.110;2022-09-09T06:59:12;98800.56;;;16.65;73.51
57126;BME280;43000;50.770;6.110;2022-09-09T07:01:40;98795.13;;;16.67;74.04
57126;BME280;43000;50.770;6.110;2022-09-09T07:04:10;98806.63;;;16.77;74.12
57126;BME280;43000;50.770;6.110;2022-09-09T07:06:39;98808.72;;;16.83;73.22
57126;BME280;43000;50.770;6.110;2022-09-09T07:09:09;98813.66;;;16.88;73.13
57126;BME280;43000;50.770;6.110;2022-09-09T07:11:38;98815.75;;;16.94;73.55
57126;BME280;43000;50.770;6.110;2022-09-09T07:14:07;98809.72;;;17.21;72.98
57126;BME280;43000;50.770;6.110;2022-09-09T07:16:34;98811.34;;;17.51;71.46
57126;BME280;43000;50.770;6.110;2022-09-09T07:19:02;98811.19;;;17.82;70.28
57126;BME280;43000;50.770;6.110;2022-09-09T07:21:32;98815.97;;;18.06;68.23
57126;BME280;43000;50.770;6.110;2022-09-09T07:23:58;98810.09;;;18.30;67.96
57126;BME280;43000;50.770;6.110;2022-09-09T07:26:29;98820.16;;;18.46;67.17
57126;BME280;43000;50.770;6.110;2022-09-09T07:28:56;98823.47;;;18.48;66.68
57126;BME280;43000;50.770;6.110;2022-09-09T07:31:24;98820.63;;;18.59;66.22
57126;BME280;43000;50.770;6.110;2022-09-09T07:33:52;98821.63;;;18.58;66.17
57126;BME280;43000;50.770;6.110;2022-09-09T07:36:20;98819.78;;;18.59;65.85
57126;BME280;43000;50.770;6.110;2022-09-09T07:38:50;98810.19;;;18.66;65.08
57126;BME280;43000;50.770;6.110;2022-09-09T07:41:18;98820.16;;;18.64;65.67
57126;BME280;43000;50.770;6.110;2022-09-09T07:43:47;98816.75;;;18.72;66.21
57126;BME280;43000;50.770;6.110;2022-09-09T07:46:15;98815.47;;;18.94;65.31
57126;BME280;43000;50.770;6.110;2022-09-09T07:48:44;98823.16;;;19.15;64.87
57126;BME280;43000;50.770;6.110;2022-09-09T07:51:12;98815.09;;;19.06;63.78
57126;BME280;43000;50.770;6.110;2022-09-09T07:53:40;98813.44;;;19.05;63.23
57126;BME280;43000;50.770;6.110;2022-09-09T07:56:10;98821.34;;;19.15;63.66
57126;BME280;43000;50.770;6.110;2022-09-09T07:58:39;98817.91;;;19.23;62.24
57126;BME280;43000;50.770;6.110;2022-09-09T08:01:07;98818.28;;;19.28;62.58
57126;BME280;43000;50.770;6.110;2022-09-09T08:03:34;98817.00;;;19.32;61.15
57126;BME280;43000;50.770;6.110;2022-09-09T08:06:02;98827.38;;;19.35;60.92
57126;BME280;43000;50.770;6.110;2022-09-09T08:08:29;98830.63;;;19.47;60.67
57126;BME280;43000;50.770;6.110;2022-09-09T08:11:02;98828.72;;;19.39;60.84
57126;BME280;43000;50.770;6.110;2022-09-09T08:13:31;98827.31;;;19.53;60.38
57126;BME280;43000;50.770;6.110;2022-09-09T08:16:05;98831.00;;;19.52;60.49
57126;BME280;43000;50.770;6.110;2022-09-09T08:18:32;98830.78;;;19.45;60.11
57126;BME280;43000;50.770;6.110;2022-09-09T08:21:05;98834.91;;;19.40;59.96
57126;BME280;43000;50.770;6.110;2022-09-09T08:26:55;98843.13;;;19.46;60.06
57126;BME280;43000;50.770;6.110;2022-09-09T08:29:23;98843.31;;;19.27;59.92
57126;BME280;43000;50.770;6.110;2022-09-09T08:31:51;98845.75;;;19.02;60.96
57126;BME280;43000;50.770;6.110;2022-09-09T08:34:19;98850.34;;;18.92;61.27
57126;BME280;43000;50.770;6.110;2022-09-09T08:36:47;98855.16;;;18.88;61.42
57126;BME280;43000;50.770;6.110;2022-09-09T08:39:15;98855.63;;;18.84;61.56
57126;BME280;43000;50.770;6.110;2022-09-09T08:42:07;98858.47;;;19.00;61.47
57126;BME280;43000;50.770;6.110;2022-09-09T08:44:56;98848.06;;;18.97;61.63
57126;BME280;43000;50.770;6.110;2022-09-09T08:47:33;98851.03;;;18.94;61.97
57126;BME280;43000;50.770;6.110;2022-09-09T08:50:18;98847.16;;;18.88;61.81
57126;BME280;43000;50.770;6.110;2022-09-09T08:52:52;98841.75;;;18.80;62.17
57126;BME280;43000;50.770;6.110;2022-09-09T08:55:25;98849.53;;;18.64;62.45
57126;BME280;43000;50.770;6.110;2022-09-09T08:57:54;98851.50;;;18.62;62.70
57126;BME280;43000;50.770;6.110;2022-09-09T09:00:34;98848.75;;;18.81;62.42
57126;BME280;43000;50.770;6.110;2022-09-09T09:03:08;98853.25;;;18.99;62.56
57126;BME280;43000;50.770;6.110;2022-09-09T09:05:41;98853.63;;;19.04;61.30
57126;BME280;43000;50.770;6.110;2022-09-09T09:08:17;98845.53;;;19.14;61.63
57126;BME280;43000;50.770;6.110;2022-09-09T09:10:49;98849.50;;;19.45;61.30
57126;BME280;43000;50.770;6.110;2022-09-09T09:13:19;98834.50;;;19.97;62.73
57126;BME280;43000;50.770;6.110;2022-09-09T09:15:52;98836.50;;;20.37;58.61
57126;BME280;43000;50.770;6.110;2022-09-09T09:18:20;98845.34;;;20.64;56.97
57126;BME280;43000;50.770;6.110;2022-09-09T09:20:51;98844.91;;;21.09;55.37
57126;BME280;43000;50.770;6.110;2022-09-09T09:23:22;98844.59;;;21.86;52.44
57126;BME280;43000;50.770;6.110;2022-09-09T09:25:50;98837.19;;;22.52;50.65
57126;BME280;43000;50.770;6.110;2022-09-09T09:28:21;98838.03;;;23.53;48.02
57126;BME280;43000;50.770;6.110;2022-09-09T09:30:54;98844.59;;;24.18;45.77
57126;BME280;43000;50.770;6.110;2022-09-09T09:33:26;98843.31;;;24.80;44.45
57126;BME280;43000;50.770;6.110;2022-09-09T09:35:54;98849.56;;;25.66;42.90
57126;BME280;43000;50.770;6.110;2022-09-09T09:38:22;98838.06;;;26.07;41.30
57126;BME280;43000;50.770;6.110;2022-09-09T09:40:50;98844.03;;;26.38;41.11
57126;BME280;43000;50.770;6.110;2022-09-09T09:43:20;98835.88;;;25.89;41.05
57126;BME280;43000;50.770;6.110;2022-09-09T09:45:48;98846.50;;;25.05;42.55
57126;BME280;43000;50.770;6.110;2022-09-09T09:48:15;98842.81;;;24.40;43.31
57126;BME280;43000;50.770;6.110;2022-09-09T09:50:47;98846.53;;;24.09;44.53
57126;BME280;43000;50.770;6.110;2022-09-09T09:53:22;98860.66;;;23.35;46.24
57126;BME280;43000;50.770;6.110;2022-09-09T09:55:54;98854.13;;;22.53;47.90
57126;BME280;43000;50.770;6.110;2022-09-09T09:58:21;98856.63;;;21.98;49.23
57126;BME280;43000;50.770;6.110;2022-09-09T10:00:49;98860.22;;;21.66;50.01
57126;BME280;43000;50.770;6.110;2022-09-09T10:03:23;98859.88;;;21.53;50.62
57126;BME280;43000;50.770;6.110;2022-09-09T10:05:51;98853.81;;;21.26;50.56
57126;BME280;43000;50.770;6.110;2022-09-09T10:08:18;98858.31;;;20.93;51.96
57126;BME280;43000;50.770;6.110;2022-09-09T10:10:58;98850.41;;;20.75;52.54
57126;BME280;43000;50.770;6.110;2022-09-09T10:13:29;98865.31;;;20.43;53.95
57126;BME280;43000;50.770;6.110;2022-09-09T10:16:15;98862.56;;;20.27;54.30
57126;BME280;43000;50.770;6.110;2022-09-09T10:18:56;98870.69;;;20.09;55.42
57126;BME280;43000;50.770;6.110;2022-09-09T10:21:32;98870.81;;;20.33;54.49
57126;BME280;43000;50.770;6.110;2022-09-09T10:24:30;98861.38;;;20.21;54.70
57126;BME280;43000;50.770;6.110;2022-09-09T10:27:02;98858.25;;;20.34;55.59
57126;BME280;43000;50.770;6.110;2022-09-09T10:29:42;98858.00;;;20.19;54.96
57126;BME280;43000;50.770;6.110;2022-09-09T10:32:31;98860.91;;;20.00;55.83
57126;BME280;43000;50.770;6.110;2022-09-09T10:35:02;98866.25;;;19.73;57.35
57126;BME280;43000;50.770;6.110;2022-09-09T10:37:43;98863.44;;;19.75;57.08
57126;BME280;43000;50.770;6.110;2022-09-09T10:40:31;98870.44;;;19.76;57.75
57126;BME280;43000;50.770;6.110;2022-09-09T10:43:07;98861.47;;;19.41;58.72
57126;BME280;43000;50.770;6.110;2022-09-09T10:45:46;98867.53;;;19.25;62.67
57126;BME280;43000;50.770;6.110;2022-09-09T10:48:30;98869.72;;;19.12;64.41
57126;BME280;43000;50.770;6.110;2022-09-09T10:51:07;98876.66;;;18.87;66.31
57126;BME280;43000;50.770;6.110;2022-09-09T10:53:46;98885.38;;;18.61;68.25
57126;BME280;43000;50.770;6.110;2022-09-09T10:56:18;98880.78;;;18.54;69.89
57126;BME280;43000;50.770;6.110;2022-09-09T10:58:49;98874.50;;;18.45;69.02
57126;BME280;43000;50.770;6.110;2022-09-09T11:01:21;98877.59;;;18.40;69.40
57126;BME280;43000;50.770;6.110;2022-09-09T11:03:54;98871.13;;;18.43;66.99
57126;BME280;43000;50.770;6.110;2022-09-09T11:06:27;98865.06;;;18.78;66.14
57126;BME280;43000;50.770;6.110;2022-09-09T11:08:57;98867.69;;;18.88;67.55
57126;BME280;43000;50.770;6.110;2022-09-09T11:11:29;98865.84;;;18.88;64.83
57126;BME280;43000;50.770;6.110;2022-09-09T11:14:02;98856.56;;;18.93;64.07
57126;BME280;43000;50.770;6.110;2022-09-09T11:16:36;98864.78;;;18.99;63.51
57126;BME280;43000;50.770;6.110;2022-09-09T11:19:12;98865.00;;;18.88;63.18
57126;BME280;43000;50.770;6.110;2022-09-09T11:21:45;98881.34;;;18.75;64.30
57126;BME280;43000;50.770;6.110;2022-09-09T11:24:16;98870.56;;;18.77;65.68
57126;BME280;43000;50.770;6.110;2022-09-09T11:26:47;98874.66;;;18.71;67.03
57126;BME280;43000;50.770;6.110;2022-09-09T11:32:27;98873.03;;;18.88;66.45
57126;BME280;43000;50.770;6.110;2022-09-09T11:35:09;98881.47;;;18.83;66.67
57126;BME280;43000;50.770;6.110;2022-09-09T11:37:58;98890.50;;;19.00;67.03
57126;BME280;43000;50.770;6.110;2022-09-09T11:40:30;98886.31;;;18.98;67.59
57126;BME280;43000;50.770;6.110;2022-09-09T11:43:03;98886.59;;;18.95;67.89
57126;BME280;43000;50.770;6.110;2022-09-09T11:45:31;98880.34;;;19.04;67.14
57126;BME280;43000;50.770;6.110;2022-09-09T11:48:01;98888.81;;;18.99;67.16
57126;BME280;43000;50.770;6.110;2022-09-09T11:50:35;98889.97;;;18.97;66.84
57126;BME280;43000;50.770;6.110;2022-09-09T11:53:22;98878.50;;;19.04;66.14
57126;BME280;43000;50.770;6.110;2022-09-09T11:56:04;98880.03;;;19.07;65.92
57126;BME280;43000;50.770;6.110;2022-09-09T11:58:37;98868.84;;;19.03;65.70
57126;BME280;43000;50.770;6.110;2022-09-09T12:01:30;98866.59;;;19.17;65.39
57126;BME280;43000;50.770;6.110;2022-09-09T12:04:15;98870.34;;;19.24;65.27
57126;BME280;43000;50.770;6.110;2022-09-09T12:06:44;98869.44;;;19.33;64.90
57126;BME280;43000;50.770;6.110;2022-09-09T12:09:19;98868.56;;;19.50;64.65
57126;BME280;43000;50.770;6.110;2022-09-09T12:11:49;98865.38;;;19.47;64.05
57126;BME280;43000;50.770;6.110;2022-09-09T12:14:20;98870.56;;;19.48;64.72
57126;BME280;43000;50.770;6.110;2022-09-09T12:16:48;98859.25;;;19.72;63.71
57126;BME280;43000;50.770;6.110;2022-09-09T12:19:17;98866.44;;;19.72;63.18
57126;BME280;43000;50.770;6.110;2022-09-09T12:21:50;98866.16;;;19.83;63.23
57126;BME280;43000;50.770;6.110;2022-09-09T12:24:24;98855.25;;;20.03;62.41
57126;BME280;43000;50.770;6.110;2022-09-09T12:26:58;98865.72;;;20.22;61.56
57126;BME280;43000;50.770;6.110;2022-09-09T12:29:38;98859.88;;;20.27;60.17
57126;BME280;43000;50.770;6.110;2022-09-09T12:32:10;98858.88;;;20.28;60.00
57126;BME280;43000;50.770;6.110;2022-09-09T12:34:41;98854.63;;;20.09;60.29
57126;BME280;43000;50.770;6.110;2022-09-09T12:37:15;98855.72;;;19.98;61.10
57126;BME280;43000;50.770;6.110;2022-09-09T12:39:50;98856.25;;;20.02;62.03
57126;BME280;43000;50.770;6.110;2022-09-09T12:42:19;98841.03;;;20.02;62.05
57126;BME280;43000;50.770;6.110;2022-09-09T12:44:56;98844.47;;;20.21;61.61
57126;BME280;43000;50.770;6.110;2022-09-09T12:47:28;98843.03;;;20.34;60.23
57126;BME280;43000;50.770;6.110;2022-09-09T12:49:57;98839.19;;;20.37;60.16
57126;BME280;43000;50.770;6.110;2022-09-09T12:52:27;98833.06;;;20.53;59.37
57126;BME280;43000;50.770;6.110;2022-09-09T12:54:58;98832.56;;;20.57;59.14
57126;BME280;43000;50.770;6.110;2022-09-09T12:57:34;98832.44;;;20.59;59.00
57126;BME280;43000;50.770;6.110;2022-09-09T13:00:08;98834.94;;;20.61;58.67
57126;BME280;43000;50.770;6.110;2022-09-09T13:02:45;98836.63;;;20.62;58.38
57126;BME280;43000;50.770;6.110;2022-09-09T13:05:15;98833.59;;;20.65;58.36
57126;BME280;43000;50.770;6.110;2022-09-09T13:07:43;98836.94;;;20.58;57.46
57126;BME280;43000;50.770;6.110;2022-09-09T13:10:13;98828.09;;;20.66;57.71
57126;BME280;43000;50.770;6.110;2022-09-09T13:12:41;98819.56;;;20.79;57.57
57126;BME280;43000;50.770;6.110;2022-09-09T13:15:19;98824.41;;;20.67;57.63
57126;BME280;43000;50.770;6.110;2022-09-09T13:17:52;98815.44;;;20.42;57.69
57126;BME280;43000;50.770;6.110;2022-09-09T13:20:21;98819.06;;;20.33;57.35
57126;BME280;43000;50.770;6.110;2022-09-09T13:22:49;98809.03;;;20.27;57.64
57126;BME280;43000;50.770;6.110;2022-09-09T13:25:21;98815.22;;;20.27;58.33
57126;BME280;43000;50.770;6.110;2022-09-09T13:28:00;98816.38;;;20.25;58.44
57126;BME280;43000;50.770;6.110;2022-09-09T13:30:29;98815.53;;;20.16;59.21